Time;durP1;ratioP1;P1;durP2;ratioP2;P2;SDS_P1;SDS_P2;PMS_P1;PMS_P2;Temp;Humidity;BMP_temperature;BMP_pressure;BME280_temperature;BME280_humidity;BME280_pressure;Samples;Min_cycle;Max_cycle;Signal;HPM_P1;HPM_P2
2023/08/04 00:00:14;;;;;;;5.50;1.70;;;;;;;17.57;74.01;99603.02;102613;277;95903;-53
2023/08/04 00:03:17;;;;;;;3.70;1.30;;;;;;;17.56;74.09;99605.53;102577;277;97085;-55
2023/08/04 00:05:53;;;;;;;4.80;1.80;;;;;;;17.55;74.15;99606.23;102599;277;119796;-56
2023/08/04 00:08:33;;;;;;;5.20;2.00;;;;;;;17.54;74.25;99609.15;102657;277;105576;-53
2023/08/04 00:11:15;;;;;;;5.90;1.70;;;;;;;17.52;74.26;99610.91;102659;277;114703;-54
2023/08/04 00:13:55;;;;;;;2.00;1.40;;;;;;;17.52;74.18;99617.30;102611;277;96672;-54
2023/08/04 00:16:32;;;;;;;3.50;1.90;;;;;;;17.49;74.29;99620.31;102682;277;97354;-54
2023/08/04 00:19:13;;;;;;;3.20;1.40;;;;;;;17.46;74.31;99620.88;102683;277;119333;-54
2023/08/04 00:21:56;;;;;;;4.80;1.90;;;;;;;17.46;74.25;99622.35;102694;277;104332;-54
2023/08/04 00:24:40;;;;;;;9.80;2.30;;;;;;;17.46;74.36;99632.52;102644;277;113995;-55
2023/08/04 00:27:21;;;;;;;4.50;1.60;;;;;;;17.47;74.28;99641.65;102641;277;94047;-52
2023/08/04 00:29:57;;;;;;;3.50;1.90;;;;;;;17.47;74.42;99630.94;102660;277;96483;-54
2023/08/04 00:32:36;;;;;;;5.20;1.70;;;;;;;17.47;74.44;99625.86;102697;277;118935;-54
2023/08/04 00:35:10;;;;;;;5.40;1.80;;;;;;;17.44;74.46;99624.67;102643;277;106153;-55
2023/08/04 00:37:46;;;;;;;3.60;1.40;;;;;;;17.41;74.60;99625.02;102646;277;113331;-57
2023/08/04 00:40:20;;;;;;;4.90;1.60;;;;;;;17.35;74.60;99622.70;102726;277;97163;-57
2023/08/04 00:42:53;;;;;;;;;;;;;;;17.34;74.69;99629.98;102660;277;96686;-54
2023/08/04 00:45:37;;;;;;;3.50;1.60;;;;;;;17.33;74.65;99629.59;102639;277;119948;-54
2023/08/04 00:48:14;;;;;;;3.30;1.50;;;;;;;17.32;74.76;99630.40;102643;277;104634;-55
2023/08/04 00:51:00;;;;;;;4.20;1.70;;;;;;;17.31;74.89;99630.99;102407;277;115158;-55
2023/08/04 00:53:37;;;;;;;3.60;1.50;;;;;;;17.32;74.73;99626.41;102648;277;94907;-55
2023/08/04 00:56:19;;;;;;;5.40;1.90;;;;;;;17.29;74.77;99627.19;102671;277;97707;-54
2023/08/04 00:58:59;;;;;;;4.10;1.70;;;;;;;17.27;74.85;99631.38;102619;277;119540;-55
2023/08/04 01:01:40;;;;;;;5.20;1.60;;;;;;;17.26;74.92;99637.73;102602;277;105877;-56
2023/08/04 01:04:24;;;;;;;2.80;1.50;;;;;;;17.22;74.75;99641.02;102634;277;114263;-56
2023/08/04 01:07:15;;;;;;;4.00;1.70;;;;;;;17.19;75.00;99640.75;102632;277;96533;-53
2023/08/04 01:10:04;;;;;;;5.30;1.60;;;;;;;17.16;74.96;99642.73;102637;277;99720;-53
2023/08/04 01:12:48;;;;;;;4.40;1.90;;;;;;;17.15;75.06;99648.39;102519;279;119307;-56
2023/08/04 01:15:33;;;;;;;4.30;1.70;;;;;;;17.20;75.18;99651.52;102685;277;106507;-57
2023/08/04 01:18:22;;;;;;;3.90;1.70;;;;;;;17.20;75.15;99652.55;102672;277;114472;-53
2023/08/04 01:21:04;;;;;;;4.70;1.80;;;;;;;17.20;75.30;99657.63;102646;277;95294;-55
2023/08/04 01:23:47;;;;;;;4.80;1.70;;;;;;;17.17;75.43;99649.40;102511;277;96130;-55
2023/08/04 01:26:24;;;;;;;2.90;1.50;;;;;;;17.15;75.35;99649.05;102577;278;119566;-53
2023/08/04 01:29:04;;;;;;;5.20;2.00;;;;;;;17.12;75.47;99650.19;102527;278;105659;-54
2023/08/04 01:31:47;;;;;;;6.70;1.80;;;;;;;17.12;75.42;99653.80;102545;278;116505;-52
2023/08/04 01:34:30;;;;;;;5.20;1.50;;;;;;;17.09;75.45;99647.49;102501;278;96308;-53
2023/08/04 01:37:09;;;;;;;4.70;1.60;;;;;;;17.06;75.51;99646.72;102504;279;97467;-53
2023/08/04 01:39:45;;;;;;;3.00;1.50;;;;;;;17.03;75.63;99644.05;102513;278;119562;-52
2023/08/04 01:42:22;;;;;;;3.70;1.70;;;;;;;17.02;75.52;99649.84;102547;278;105738;-51
2023/08/04 01:45:02;;;;;;;4.90;1.70;;;;;;;16.99;75.52;99652.08;102510;279;114427;-52
2023/08/04 01:47:41;;;;;;;4.80;1.60;;;;;;;16.96;75.62;99652.69;102520;278;94566;-54
2023/08/04 01:50:18;;;;;;;4.90;2.10;;;;;;;16.92;75.68;99649.89;102537;278;97960;-53
2023/08/04 01:53:04;;;;;;;5.80;1.80;;;;;;;16.88;75.81;99650.86;102573;278;118746;-56
2023/08/04 01:55:49;;;;;;;4.40;1.80;;;;;;;16.83;76.02;99647.25;102552;278;105098;-57
2023/08/04 01:58:27;;;;;;;3.10;1.40;;;;;;;16.84;75.97;99650.79;102588;278;113648;-52
2023/08/04 02:01:08;;;;;;;4.40;1.60;;;;;;;16.84;76.00;99647.35;102538;279;96386;-53
2023/08/04 02:03:52;;;;;;;3.90;1.80;;;;;;;16.82;76.31;99647.83;102565;278;95904;-54
2023/08/04 02:06:33;;;;;;;3.70;1.80;;;;;;;16.81;76.34;99644.10;102560;267;118908;-52
2023/08/04 02:09:09;;;;;;;3.20;1.70;;;;;;;16.84;76.41;99648.83;102525;278;105652;-53
2023/08/04 02:11:50;;;;;;;6.10;1.80;;;;;;;16.86;76.48;99649.73;102593;278;113562;-52
2023/08/04 02:14:25;;;;;;;3.60;1.40;;;;;;;16.84;76.46;99652.16;102533;278;95563;-52
2023/08/04 02:17:03;;;;;;;5.50;1.60;;;;;;;16.83;76.52;99654.00;102632;278;97812;-52
2023/08/04 02:19:41;;;;;;;4.00;1.60;;;;;;;16.77;76.53;99660.23;102635;278;119743;-52
2023/08/04 02:22:23;;;;;;;5.20;2.20;;;;;;;16.73;76.51;99664.77;102620;278;106106;-57
2023/08/04 02:25:01;;;;;;;9.30;2.80;;;;;;;16.68;76.57;99666.55;102601;278;113572;-58
2023/08/04 02:27:42;;;;;;;2.90;1.40;;;;;;;16.68;76.65;99666.61;102617;278;96931;-51
2023/08/04 02:30:19;;;;;;;4.70;1.80;;;;;;;16.66;76.89;99664.55;102570;278;98426;-52
2023/08/04 02:32:58;;;;;;;3.70;1.60;;;;;;;16.63;76.97;99673.46;102505;271;120037;-55
2023/08/04 02:35:39;;;;;;;4.80;1.90;;;;;;;16.63;77.11;99671.77;102604;278;104941;-55
2023/08/04 02:38:14;;;;;;;2.80;1.70;;;;;;;16.64;77.20;99672.94;102670;278;114194;-53
2023/08/04 02:40:58;;;;;;;3.00;1.50;;;;;;;16.62;77.14;99673.60;102607;278;96731;-52
2023/08/04 02:43:37;;;;;;;3.50;1.70;;;;;;;16.63;77.18;99679.67;102665;278;98207;-56
2023/08/04 02:46:30;;;;;;;3.10;1.60;;;;;;;16.63;77.34;99684.54;102646;277;119676;-55
2023/08/04 02:49:10;;;;;;;3.50;1.50;;;;;;;16.62;77.29;99684.45;102445;278;106011;-57
2023/08/04 02:51:53;;;;;;;3.10;1.60;;;;;;;16.66;77.35;99688.63;102648;277;114337;-53
2023/08/04 02:54:28;;;;;;;4.60;1.50;;;;;;;16.67;77.28;99695.66;102680;278;94107;-54
2023/08/04 02:57:13;;;;;;;4.50;1.50;;;;;;;16.69;77.47;99695.88;102660;277;97879;-53
2023/08/04 02:59:53;;;;;;;6.00;1.70;;;;;;;16.71;77.39;99694.89;102428;278;118890;-52
2023/08/04 03:02:30;;;;;;;2.70;1.50;;;;;;;16.71;77.55;99696.30;102560;278;104999;-56
2023/08/04 03:05:05;;;;;;;9.80;1.80;;;;;;;16.74;77.54;99699.07;102599;278;115047;-57
2023/08/04 03:07:41;;;;;;;3.60;1.60;;;;;;;16.77;77.47;99704.05;102639;278;97521;-53
2023/08/04 03:10:18;;;;;;;3.20;1.40;;;;;;;16.79;77.47;99713.73;102619;278;97771;-53
2023/08/04 03:13:00;;;;;;;5.30;1.60;;;;;;;16.79;77.49;99714.22;102218;278;489004;-54
2023/08/04 03:15:41;;;;;;;4.40;1.70;;;;;;;16.75;77.62;99721.30;102374;278;105741;-53
2023/08/04 03:18:18;;;;;;;4.90;2.30;;;;;;;16.76;77.55;99729.00;102586;278;114207;-55
2023/08/04 03:20:58;;;;;;;3.50;1.80;;;;;;;16.78;77.58;99732.75;102536;278;97255;-55
2023/08/04 03:23:40;;;;;;;3.40;1.50;;;;;;;16.82;77.73;99732.48;102619;277;97946;-54
2023/08/04 03:26:23;;;;;;;3.60;1.50;;;;;;;16.89;77.68;99734.64;102554;278;119259;-55
2023/08/04 03:29:05;;;;;;;4.20;1.60;;;;;;;16.96;77.67;99736.23;102612;278;105134;-56
2023/08/04 03:31:49;;;;;;;2.40;1.20;;;;;;;17.06;77.64;99742.58;102530;278;114628;-54
2023/08/04 03:34:32;;;;;;;4.50;1.70;;;;;;;17.13;77.62;99745.42;102568;278;93779;-55
2023/08/04 03:37:10;;;;;;;4.80;2.00;;;;;;;17.21;77.51;99750.67;102626;278;96892;-57
2023/08/04 03:39:48;;;;;;;5.10;1.70;;;;;;;17.28;77.47;99756.05;102632;278;118366;-57
2023/08/04 03:42:32;;;;;;;3.60;1.70;;;;;;;17.34;77.40;99753.67;102692;278;105326;-52
2023/08/04 03:45:13;;;;;;;3.80;1.50;;;;;;;17.42;77.21;99749.16;102676;278;114220;-53
2023/08/04 03:47:49;;;;;;;5.10;1.70;;;;;;;17.46;77.08;99752.66;102644;278;97369;-54
2023/08/04 03:50:26;;;;;;;2.40;1.30;;;;;;;17.56;76.91;99751.20;102655;278;97162;-53
2023/08/04 03:53:03;;;;;;;4.40;1.60;;;;;;;17.88;76.48;99750.36;102673;278;118434;-53
2023/08/04 03:55:41;;;;;;;4.60;1.80;;;;;;;18.54;75.79;99747.86;102603;278;104396;-52
2023/08/04 03:58:24;;;;;;;3.20;1.60;;;;;;;18.94;75.26;99741.39;102572;278;115181;-52
2023/08/04 04:01:07;;;;;;;3.10;1.40;;;;;;;19.38;74.34;99743.38;102603;270;94368;-53
2023/08/04 04:03:46;;;;;;;5.30;1.90;;;;;;;19.46;73.90;99745.85;102659;278;97063;-57
2023/08/04 04:06:31;;;;;;;3.60;1.70;;;;;;;19.48;73.49;99750.08;102676;278;118684;-56
2023/08/04 04:09:08;;;;;;;5.50;1.50;;;;;;;19.69;73.19;99751.09;102669;278;106368;-56
2023/08/04 04:11:49;;;;;;;5.90;1.30;;;;;;;19.53;73.27;99751.16;102647;278;114269;-52
2023/08/04 04:14:39;;;;;;;4.00;1.80;;;;;;;19.38;72.98;99751.97;102612;278;96652;-52
2023/08/04 04:17:25;;;;;;;3.00;1.60;;;;;;;19.52;72.51;99751.59;102642;278;97855;-57
2023/08/04 04:20:05;;;;;;;3.60;1.50;;;;;;;19.40;72.57;99755.92;102720;278;119398;-57
2023/08/04 04:22:47;;;;;;;4.70;1.60;;;;;;;19.26;72.75;99760.45;102705;278;104207;-52
2023/08/04 04:25:25;;;;;;;4.30;1.50;;;;;;;19.24;72.86;99760.16;102708;278;113518;-52
2023/08/04 04:28:01;;;;;;;3.20;1.70;;;;;;;19.32;72.68;99762.09;102611;278;92634;-52
2023/08/04 04:30:40;;;;;;;5.70;1.50;;;;;;;19.55;72.38;99766.08;102617;278;96638;-52
2023/08/04 04:33:20;;;;;;;3.90;1.50;;;;;;;19.62;72.18;99765.75;102657;277;117988;-53
2023/08/04 04:35:57;;;;;;;4.00;1.60;;;;;;;19.67;72.02;99765.33;102599;278;105900;-54
2023/08/04 04:38:37;;;;;;;2.10;1.20;;;;;;;19.72;71.90;99768.17;102653;278;115304;-55
2023/08/04 04:41:19;;;;;;;2.90;1.20;;;;;;;20.02;71.47;99763.79;102618;278;94371;-55
2023/08/04 04:43:55;;;;;;;4.40;1.50;;;;;;;20.23;71.25;99770.09;102679;277;95979;-52
2023/08/04 04:46:35;;;;;;;5.10;2.20;;;;;;;20.17;71.08;99778.73;102618;278;120079;-57
2023/08/04 04:49:16;;;;;;;5.10;1.60;;;;;;;20.11;70.88;99784.36;102624;278;105587;-57
2023/08/04 04:51:50;;;;;;;4.90;1.70;;;;;;;20.11;70.83;99791.37;102641;278;114504;-55
2023/08/04 04:54:29;;;;;;;3.80;1.40;;;;;;;20.24;70.84;99797.38;102600;278;95767;-55
2023/08/04 04:57:11;;;;;;;4.00;1.30;;;;;;;20.29;70.77;99796.21;102615;278;98332;-57
2023/08/04 04:59:49;;;;;;;3.00;1.30;;;;;;;20.77;70.61;99795.52;102573;278;120345;-56
2023/08/04 05:02:30;;;;;;;3.00;1.30;;;;;;;22.51;69.76;99797.85;102647;275;106294;-52
2023/08/04 05:05:08;;;;;;;2.40;1.30;;;;;;;25.07;67.30;99796.20;102614;277;114729;-52
2023/08/04 05:07:47;;;;;;;2.70;1.30;;;;;;;27.17;64.25;99795.94;102602;278;93732;-57
2023/08/04 05:10:26;;;;;;;3.60;1.40;;;;;;;28.71;61.19;99791.25;102630;278;98361;-57
2023/08/04 05:13:02;;;;;;;3.10;1.70;;;;;;;30.06;58.06;99792.81;102648;278;120330;-52
2023/08/04 05:15:39;;;;;;;2.50;1.20;;;;;;;29.95;55.81;99791.98;102638;278;104916;-53
2023/08/04 05:18:16;;;;;;;5.10;1.80;;;;;;;29.82;54.76;99789.91;102640;278;113945;-52
2023/08/04 05:20:56;;;;;;;3.20;1.40;;;;;;;29.11;53.76;99790.31;102520;279;95159;-53
2023/08/04 05:23:32;;;;;;;3.40;1.40;;;;;;;28.73;53.75;99788.89;102673;278;97846;-57
2023/08/04 05:26:13;;;;;;;7.60;1.60;;;;;;;29.10;52.90;99796.38;102567;278;120285;-57
2023/08/04 05:28:52;;;;;;;5.10;1.60;;;;;;;29.30;52.12;99804.10;102584;278;105715;-53
2023/08/04 05:31:32;;;;;;;2.60;1.60;;;;;;;29.76;51.52;99809.77;102596;278;114779;-55
2023/08/04 05:34:09;;;;;;;3.50;1.50;;;;;;;29.85;50.25;99812.64;102537;266;94517;-56
2023/08/04 05:36:46;;;;;;;3.60;1.30;;;;;;;29.00;50.13;99814.20;102610;278;97210;-56
2023/08/04 05:39:24;;;;;;;3.50;1.30;;;;;;;27.84;50.47;99817.02;102548;278;119693;-56
2023/08/04 05:42:03;;;;;;;3.20;1.20;;;;;;;26.61;51.21;99819.25;102584;278;103834;-53
2023/08/04 05:44:43;;;;;;;4.60;1.60;;;;;;;26.00;52.17;99817.00;102573;278;114673;-53
2023/08/04 05:47:26;;;;;;;3.80;1.30;;;;;;;25.48;52.87;99814.44;102587;278;93490;-54
2023/08/04 05:50:08;;;;;;;2.20;1.20;;;;;;;25.42;53.81;99815.80;102623;278;95752;-53
2023/08/04 05:52:48;;;;;;;2.70;1.30;;;;;;;25.60;53.59;99811.33;102645;278;119878;-57
2023/08/04 05:55:27;;;;;;;3.50;1.30;;;;;;;25.53;53.70;99820.36;102586;278;105269;-56
2023/08/04 05:58:14;;;;;;;3.90;1.30;;;;;;;25.54;53.61;99821.95;102521;279;115737;-57
2023/08/04 06:00:59;;;;;;;2.50;1.20;;;;;;;26.34;53.93;99824.86;102562;278;95226;-56
2023/08/04 06:03:39;;;;;;;4.00;1.30;;;;;;;27.92;52.65;99816.80;102677;278;96635;-57
2023/08/04 06:06:23;;;;;;;2.00;1.00;;;;;;;29.21;50.91;99812.14;102633;277;118212;-57
2023/08/04 06:09:01;;;;;;;1.90;1.30;;;;;;;30.01;49.56;99810.23;102641;278;106194;-57
2023/08/04 06:11:39;;;;;;;5.20;1.50;;;;;;;30.91;48.48;99819.60;102535;278;113685;-54
2023/08/04 06:14:25;;;;;;;6.80;1.50;;;;;;;31.96;47.49;99819.72;102521;278;94509;-54
2023/08/04 06:17:00;;;;;;;1.50;0.90;;;;;;;33.55;46.46;99811.05;102573;278;98551;-52
2023/08/04 06:19:43;;;;;;;2.50;1.30;;;;;;;34.00;43.08;99811.15;102517;278;119810;-52
2023/08/04 06:22:22;;;;;;;5.10;1.60;;;;;;;32.47;42.73;99813.08;102614;278;106878;-52
2023/08/04 06:24:59;;;;;;;2.90;1.10;;;;;;;31.48;43.38;99826.77;102613;278;113618;-53
2023/08/04 06:27:37;;;;;;;2.00;1.20;;;;;;;30.56;43.65;99830.70;102625;278;93758;-54
2023/08/04 06:30:13;;;;;;;3.40;1.00;;;;;;;29.44;44.12;99832.86;102618;278;97622;-53
2023/08/04 06:32:51;;;;;;;2.80;1.30;;;;;;;28.50;45.26;99829.13;102588;278;119536;-52
2023/08/04 06:35:31;;;;;;;5.70;1.40;;;;;;;28.01;46.07;99828.58;102407;278;105602;-53
2023/08/04 06:38:09;;;;;;;3.20;1.40;;;;;;;27.49;46.87;99837.77;102574;278;113178;-53
2023/08/04 06:40:52;;;;;;;2.40;1.00;;;;;;;27.39;47.90;99839.83;102528;277;94386;-52
2023/08/04 06:43:30;;;;;;;3.30;1.20;;;;;;;27.30;47.97;99838.54;102620;278;98196;-55
2023/08/04 06:46:28;;;;;;;2.60;1.20;;;;;;;28.06;48.20;99841.14;102559;278;119569;-55
2023/08/04 06:49:08;;;;;;;3.30;1.00;;;;;;;28.49;47.21;99841.77;102580;278;105181;-52
2023/08/04 06:51:49;;;;;;;4.40;1.40;;;;;;;28.47;47.55;99835.66;102608;278;115371;-61
2023/08/04 06:54:29;;;;;;;4.10;1.10;;;;;;;28.76;47.36;99845.43;102572;278;95206;-61
2023/08/04 06:57:16;;;;;;;2.00;1.30;;;;;;;29.12;46.89;99847.98;102597;278;96642;-60
2023/08/04 06:59:54;;;;;;;2.50;1.50;;;;;;;29.37;45.93;99843.55;102603;278;119515;-60
2023/08/04 07:02:33;;;;;;;2.30;1.20;;;;;;;29.26;45.71;99836.65;102567;278;104413;-62
2023/08/04 07:05:08;;;;;;;2.30;0.90;;;;;;;28.98;45.81;99837.30;102560;278;115118;-62
2023/08/04 07:07:51;;;;;;;3.80;1.00;;;;;;;29.09;45.93;99844.64;102589;278;93828;-59
2023/08/04 07:10:36;;;;;;;2.40;0.80;;;;;;;28.72;45.99;99851.97;102533;278;98150;-60
2023/08/04 07:13:22;;;;;;;2.90;1.00;;;;;;;28.07;46.61;99856.91;102575;278;119493;-62
2023/08/04 07:16:03;;;;;;;2.20;0.90;;;;;;;27.63;47.15;99871.07;102602;278;106063;-63
2023/08/04 07:18:42;;;;;;;2.40;0.90;;;;;;;27.19;47.41;99878.45;102657;278;113504;-61
2023/08/04 07:21:20;;;;;;;2.80;1.00;;;;;;;26.79;47.91;99875.88;102614;278;93904;-60
2023/08/04 07:23:59;;;;;;;1.80;1.10;;;;;;;26.49;48.52;99875.02;102637;278;97915;-60
2023/08/04 07:26:43;;;;;;;1.90;1.00;;;;;;;26.14;48.92;99873.23;102631;278;118028;-60
2023/08/04 07:29:22;;;;;;;1.70;0.70;;;;;;;26.36;49.51;99871.56;102696;278;105230;-59
2023/08/04 07:32:03;;;;;;;2.10;0.90;;;;;;;26.68;49.38;99878.25;102642;277;114051;-62
2023/08/04 07:34:46;;;;;;;2.90;1.20;;;;;;;26.31;49.45;99889.27;102644;278;93738;-62
2023/08/04 07:37:25;;;;;;;3.00;1.10;;;;;;;25.90;49.87;99890.41;102662;278;97246;-60
2023/08/04 07:40:05;;;;;;;2.80;1.40;;;;;;;25.54;50.42;99892.77;102641;278;120032;-60
2023/08/04 07:42:49;;;;;;;3.00;1.10;;;;;;;25.22;50.90;99896.91;102667;278;103922;-60
2023/08/04 07:45:27;;;;;;;1.70;0.90;;;;;;;25.12;51.22;99899.04;102616;278;114665;-60
2023/08/04 07:48:06;;;;;;;3.40;1.10;;;;;;;25.12;51.46;99913.56;102433;279;93540;-62
2023/08/04 07:50:42;;;;;;;2.40;1.00;;;;;;;24.98;51.70;99912.54;102705;278;97116;-61
2023/08/04 07:53:22;;;;;;;2.30;1.00;;;;;;;24.70;52.09;99910.81;102633;278;118852;-61
2023/08/04 07:56:08;;;;;;;2.80;1.00;;;;;;;24.52;52.45;99912.73;102658;278;107129;-62
2023/08/04 07:58:48;;;;;;;3.40;1.00;;;;;;;24.48;53.22;99918.73;102623;278;113574;-60
2023/08/04 08:01:24;;;;;;;3.80;1.60;;;;;;;24.73;53.76;99923.10;102656;278;95205;-59
2023/08/04 08:04:05;;;;;;;4.90;1.10;;;;;;;25.07;54.07;99921.33;102434;278;96083;-60
2023/08/04 08:06:54;;;;;;;1.40;0.70;;;;;;;25.58;53.66;99919.69;102592;278;119135;-59
2023/08/04 08:09:31;;;;;;;2.30;1.00;;;;;;;25.64;52.96;99915.85;102587;266;105894;-61
2023/08/04 08:12:11;;;;;;;2.80;0.90;;;;;;;25.49;52.93;99917.46;102617;277;114617;-63
2023/08/04 08:14:49;;;;;;;1.20;0.80;;;;;;;25.38;52.99;99918.98;102625;278;92607;-61
2023/08/04 08:17:33;;;;;;;2.40;0.80;;;;;;;25.96;53.83;99921.30;102697;278;97378;-61
2023/08/04 08:20:11;;;;;;;2.80;1.00;;;;;;;26.68;52.77;99925.53;102598;278;118682;-61
2023/08/04 08:22:54;;;;;;;1.90;1.30;;;;;;;27.18;52.68;99930.27;102639;278;103764;-62
2023/08/04 08:25:37;;;;;;;1.80;0.80;;;;;;;29.10;51.72;99932.25;102628;278;114361;-55
2023/08/04 08:28:20;;;;;;;2.00;1.00;;;;;;;30.95;49.15;99926.41;102664;278;95794;-54
2023/08/04 08:31:06;;;;;;;2.10;0.90;;;;;;;31.79;46.76;99931.85;102630;278;97881;-53
2023/08/04 08:33:46;;;;;;;3.40;1.00;;;;;;;31.65;45.22;99932.50;102681;278;119485;-53
2023/08/04 08:36:22;;;;;;;3.80;0.80;;;;;;;31.73;44.17;99945.58;102641;319;105143;-53
2023/08/04 08:39:08;;;;;;;2.70;0.80;;;;;;;31.67;42.81;99945.82;102687;278;114443;-52
2023/08/04 08:41:49;;;;;;;3.20;1.20;;;;;;;31.11;42.69;99951.18;102644;278;93796;-56
2023/08/04 08:44:32;;;;;;;2.10;0.80;;;;;;;30.95;42.83;99953.88;102660;278;97242;-56
2023/08/04 08:47:08;;;;;;;;;;;;;;;31.56;43.63;99948.31;102630;278;118595;-51
2023/08/04 08:49:52;;;;;;;3.10;0.90;;;;;;;32.72;42.34;99949.91;102649;278;105656;-54
2023/08/04 08:52:36;;;;;;;1.00;0.60;;;;;;;32.69;41.51;99947.48;102599;278;113660;-52
2023/08/04 08:55:16;;;;;;;3.50;0.90;;;;;;;32.86;41.30;99940.86;102590;278;95056;-53
2023/08/04 08:57:52;;;;;;;1.10;0.70;;;;;;;32.85;40.53;99945.96;102598;278;96018;-52
2023/08/04 09:00:38;;;;;;;2.50;0.90;;;;;;;33.81;40.34;99941.09;102604;278;119827;-52
2023/08/04 09:03:26;;;;;;;1.90;0.80;;;;;;;34.74;38.95;99938.38;102658;278;105947;-54
2023/08/04 09:06:10;;;;;;;2.50;0.80;;;;;;;34.77;37.68;99935.55;102603;278;113135;-54
2023/08/04 09:08:58;;;;;;;2.10;0.80;;;;;;;34.89;36.65;99940.28;102628;278;93923;-54
2023/08/04 09:11:35;;;;;;;1.50;0.70;;;;;;;34.34;36.71;99939.81;102616;278;97785;-54
2023/08/04 09:14:19;;;;;;;2.50;0.90;;;;;;;33.35;36.90;99936.34;102632;278;118887;-54
2023/08/04 09:16:56;;;;;;;2.50;0.80;;;;;;;32.65;37.33;99954.35;102609;278;104086;-54
2023/08/04 09:19:40;;;;;;;1.00;0.80;;;;;;;31.82;37.94;99962.92;102599;281;113054;-55
2023/08/04 09:22:21;;;;;;;2.40;0.70;;;;;;;31.42;38.46;99967.81;102662;278;93916;-55
2023/08/04 09:25:01;;;;;;;1.40;0.80;;;;;;;31.04;38.97;99963.81;102646;278;97989;-55
2023/08/04 09:27:43;;;;;;;2.00;1.00;;;;;;;30.77;39.80;99965.61;102701;278;119775;-56
2023/08/04 09:30:27;;;;;;;2.10;1.10;;;;;;;30.78;39.68;99969.73;102617;278;105550;-57
2023/08/04 09:33:25;;;;;;;1.60;0.70;;;;;;;30.51;40.21;99966.73;102602;278;114583;-55
2023/08/04 09:36:18;;;;;;;2.00;1.10;;;;;;;30.50;40.64;99963.11;102565;278;94450;-55
2023/08/04 09:39:05;;;;;;;1.80;0.90;;;;;;;30.50;40.92;99957.89;102534;278;97635;-54
2023/08/04 09:41:51;;;;;;;2.00;0.90;;;;;;;30.39;40.51;99957.04;102579;278;117875;-53
2023/08/04 09:44:43;;;;;;;2.30;0.70;;;;;;;30.38;40.77;99963.50;102609;278;106746;-52
2023/08/04 09:47:26;;;;;;;3.30;1.00;;;;;;;30.30;40.97;99960.48;102574;278;113714;-53
2023/08/04 09:50:11;;;;;;;1.90;0.70;;;;;;;30.13;40.98;99966.65;102495;278;94803;-52
2023/08/04 09:52:48;;;;;;;4.00;0.90;;;;;;;30.00;41.17;99968.92;102564;279;97049;-54
2023/08/04 09:55:34;;;;;;;2.00;0.80;;;;;;;29.79;41.33;99968.40;102616;278;119543;-53
2023/08/04 09:58:19;;;;;;;4.00;1.20;;;;;;;29.60;41.47;99972.77;102613;278;105507;-54
2023/08/04 10:01:00;;;;;;;2.20;0.80;;;;;;;29.61;41.61;99972.11;102585;278;114153;-54
2023/08/04 10:03:44;;;;;;;6.90;1.70;;;;;;;29.61;41.30;99972.00;102623;278;95179;-56
2023/08/04 10:06:22;;;;;;;1.80;0.90;;;;;;;29.59;41.50;99968.84;102611;275;96879;-56
2023/08/04 10:09:03;;;;;;;2.30;0.90;;;;;;;29.59;41.58;99964.45;102624;278;119323;-57
2023/08/04 10:11:43;;;;;;;4.10;1.00;;;;;;;29.60;41.70;99970.44;102640;278;105598;-53
2023/08/04 10:14:28;;;;;;;2.50;0.80;;;;;;;29.76;42.06;99971.04;102606;278;113963;-53
2023/08/04 10:17:08;;;;;;;4.80;1.60;;;;;;;29.62;41.22;99968.75;102638;278;94284;-52
2023/08/04 10:19:46;;;;;;;2.80;1.00;;;;;;;29.50;41.53;99966.57;102580;278;97979;-52
2023/08/04 10:22:24;;;;;;;3.10;0.90;;;;;;;29.67;41.83;99968.09;102598;278;119895;-52
2023/08/04 10:25:15;;;;;;;2.60;0.80;;;;;;;29.53;41.58;99978.00;102596;278;105597;-53
2023/08/04 10:27:56;;;;;;;3.30;1.00;;;;;;;29.25;41.62;99976.10;102575;278;114030;-55
2023/08/04 10:30:42;;;;;;;1.90;0.80;;;;;;;29.11;41.65;99971.77;102629;278;93347;-56
2023/08/04 10:33:25;;;;;;;3.10;1.30;;;;;;;29.08;41.94;99970.35;102625;278;97554;-52
2023/08/04 10:36:18;;;;;;;1.20;0.80;;;;;;;28.96;42.26;99970.37;102636;278;119026;-52
2023/08/04 10:38:54;;;;;;;1.60;0.80;;;;;;;28.90;42.55;99969.70;102672;278;105896;-57
2023/08/04 10:41:35;;;;;;;3.30;0.90;;;;;;;29.15;42.47;99973.15;102569;278;113820;-55
2023/08/04 10:44:13;;;;;;;3.80;1.20;;;;;;;29.12;42.29;99968.88;102564;278;92203;-55
2023/08/04 10:46:50;;;;;;;1.90;0.80;;;;;;;29.00;42.54;99968.59;102594;278;97974;-54
2023/08/04 10:49:31;;;;;;;1.80;0.70;;;;;;;28.81;42.77;99977.14;102600;278;119430;-53
2023/08/04 10:52:12;;;;;;;2.00;0.90;;;;;;;28.60;43.10;99983.07;102689;278;104838;-52
2023/08/04 10:54:49;;;;;;;2.70;0.90;;;;;;;28.35;42.96;99986.59;102603;278;114677;-52
2023/08/04 10:57:27;;;;;;;1.70;1.00;;;;;;;28.18;43.25;99988.20;102614;278;91975;-57
2023/08/04 11:00:11;;;;;;;3.20;0.90;;;;;;;28.02;43.55;99992.02;102588;278;98179;-56
2023/08/04 11:02:47;;;;;;;4.20;0.90;;;;;;;27.89;43.76;99998.03;102581;278;119242;-51
2023/08/04 11:05:24;;;;;;;2.20;1.00;;;;;;;27.95;43.64;99998.52;102542;278;105099;-52
2023/08/04 11:08:04;;;;;;;5.00;0.90;;;;;;;28.23;43.92;99997.91;102538;278;114594;-56
2023/08/04 11:10:46;;;;;;;2.70;0.80;;;;;;;28.45;43.93;99996.96;102579;278;94411;-57
2023/08/04 11:13:26;;;;;;;4.00;1.40;;;;;;;28.43;43.71;99997.28;101778;278;1098534;-57
2023/08/04 11:16:06;;;;;;;2.10;1.00;;;;;;;28.67;43.90;99998.03;102406;278;120501;-57
2023/08/04 11:18:47;;;;;;;2.20;1.00;;;;;;;28.89;43.98;99992.27;102392;278;107927;-52
2023/08/04 11:21:34;;;;;;;3.50;0.80;;;;;;;29.11;43.83;99992.27;102585;277;113492;-54
2023/08/04 11:24:17;;;;;;;2.30;1.00;;;;;;;29.22;43.40;99990.78;102706;277;94602;-54
2023/08/04 11:27:00;;;;;;;2.10;1.00;;;;;;;29.30;42.89;99997.23;102779;277;97712;-61
2023/08/04 11:29:42;;;;;;;4.20;0.90;;;;;;;29.25;42.80;99992.36;102727;266;119583;-57
2023/08/04 11:32:25;;;;;;;3.20;1.10;;;;;;;29.23;42.87;99991.19;102746;277;104908;-63
2023/08/04 11:35:04;;;;;;;3.00;0.90;;;;;;;29.25;42.33;99991.64;102778;277;113953;-64
2023/08/04 11:37:46;;;;;;;2.10;1.10;;;;;;;29.22;42.50;99990.93;102748;277;94190;-54
2023/08/04 11:40:31;;;;;;;7.50;1.20;;;;;;;29.29;42.71;99985.74;102712;277;97320;-54
2023/08/04 11:43:15;;;;;;;1.80;1.00;;;;;;;29.51;42.56;99991.59;102768;269;119362;-57
2023/08/04 11:45:59;;;;;;;1.90;0.90;;;;;;;29.60;42.11;99989.79;102725;277;104254;-56
2023/08/04 11:48:36;;;;;;;1.40;0.80;;;;;;;29.62;41.98;99991.08;102724;277;113331;-56
2023/08/04 11:51:12;;;;;;;2.60;1.00;;;;;;;29.39;42.01;99991.73;102743;270;93096;-55
2023/08/04 11:53:54;;;;;;;1.60;1.00;;;;;;;29.28;42.02;99984.98;102761;277;96306;-54
2023/08/04 11:56:39;;;;;;;1.80;1.20;;;;;;;29.30;41.95;99982.33;102746;277;120372;-52
2023/08/04 11:59:17;;;;;;;1.70;1.00;;;;;;;29.37;42.17;99981.17;102714;277;106084;-53
2023/08/04 12:02:11;;;;;;;2.90;1.10;;;;;;;29.32;41.66;99985.48;102750;277;114925;-53
2023/08/04 12:05:04;;;;;;;3.90;0.90;;;;;;;29.23;41.58;99983.06;102721;277;93549;-54
2023/08/04 12:07:39;;;;;;;4.10;1.00;;;;;;;28.96;41.35;99980.94;102803;277;97290;-51
2023/08/04 12:10:21;;;;;;;2.30;1.00;;;;;;;28.63;41.74;99994.05;102751;277;120702;-53
2023/08/04 12:13:02;;;;;;;2.90;1.10;;;;;;;28.58;42.12;99994.57;102742;277;105650;-53
2023/08/04 12:15:56;;;;;;;2.90;0.90;;;;;;;28.55;42.39;99994.40;102765;277;113553;-53
2023/08/04 12:18:34;;;;;;;1.50;0.90;;;;;;;28.60;42.82;99996.13;102766;277;94060;-53
2023/08/04 12:21:19;;;;;;;2.50;1.20;;;;;;;28.78;42.93;99984.45;102778;277;97907;-53
2023/08/04 12:23:57;;;;;;;2.00;1.00;;;;;;;28.76;42.27;99985.10;102751;277;118041;-53
2023/08/04 12:26:47;;;;;;;2.90;1.30;;;;;;;28.73;41.98;99983.09;102742;277;104515;-54
2023/08/04 12:29:26;;;;;;;1.70;0.80;;;;;;;29.06;42.53;99982.15;102708;277;115210;-53
2023/08/04 12:32:03;;;;;;;2.70;1.00;;;;;;;29.31;42.47;99976.77;102706;277;95174;-52